createdAt,value
2022-11-14T00:00:06.109Z,0.88
2022-11-14T00:03:11.207Z,2.75
2022-11-14T00:06:14.580Z,1.27
2022-11-14T00:09:17.692Z,2.97
2022-11-14T00:12:22.538Z,5.40
2022-11-14T00:15:26.581Z,0.68
2022-11-14T00:18:30.043Z,3.58
2022-11-14T00:21:33.654Z,1.25
2022-11-14T00:24:37.135Z,3.53
2022-11-14T00:27:41.793Z,1.73
2022-11-14T00:30:49.767Z,2.08
2022-11-14T00:33:52.957Z,1.80
2022-11-14T00:36:56.389Z,2.45
2022-11-14T00:39:59.537Z,3.33
2022-11-14T00:43:04.101Z,2.58
2022-11-14T00:46:10.183Z,0.88
2022-11-14T00:49:13.531Z,3.15
2022-11-14T00:52:16.740Z,4.77
2022-11-14T00:55:20.345Z,1.80
2022-11-14T00:58:25.034Z,1.65
2022-11-14T01:01:28.598Z,1.98
2022-11-14T01:04:31.901Z,2.22
2022-11-14T01:07:35.106Z,2.00
2022-11-14T01:10:41.752Z,1.17
2022-11-14T01:13:48.288Z,2.75
2022-11-14T01:16:51.356Z,1.45
2022-11-14T01:19:56.048Z,1.63
2022-11-14T01:22:59.229Z,1.50
2022-11-14T01:26:09.014Z,2.10
2022-11-14T01:29:13.615Z,1.33
2022-11-14T01:32:17.481Z,1.58
2022-11-14T01:35:20.715Z,1.10
2022-11-14T01:38:25.175Z,5.67
2022-11-14T01:41:28.431Z,2.30
2022-11-14T01:44:48.937Z,2.70
2022-11-14T01:47:52.518Z,2.80
2022-11-14T01:51:02.112Z,1.70
2022-11-14T01:54:12.559Z,3.03
2022-11-14T01:57:22.409Z,4.25
2022-11-14T02:00:27.062Z,3.95
2022-11-14T02:03:31.579Z,1.58
2022-11-14T02:06:36.758Z,3.47
2022-11-14T02:09:45.628Z,3.10
2022-11-14T02:12:50.742Z,4.53
2022-11-14T02:15:56.009Z,2.85
2022-11-14T02:18:59.488Z,1.50
2022-11-14T02:22:03.917Z,1.98
2022-11-14T02:25:09.625Z,2.13
2022-11-14T02:28:13.291Z,2.95
2022-11-14T02:31:17.415Z,2.83
2022-11-14T02:34:21.472Z,2.38
2022-11-14T02:37:26.134Z,1.80
2022-11-14T02:40:29.789Z,3.08
2022-11-14T02:43:33.614Z,3.17
2022-11-14T02:46:37.597Z,3.08
2022-11-14T02:49:40.869Z,3.70
2022-11-14T02:52:45.495Z,2.08
2022-11-14T02:55:49.008Z,3.45
2022-11-14T02:58:53.010Z,3.53
2022-11-14T03:01:56.474Z,2.75
2022-11-14T03:04:59.795Z,5.93
2022-11-14T03:08:04.543Z,1.47
2022-11-14T03:11:09.991Z,2.30
2022-11-14T03:14:13.388Z,3.00
2022-11-14T03:17:16.627Z,2.20
2022-11-14T03:20:20.616Z,2.80
2022-11-14T03:23:25.196Z,2.65
2022-11-14T03:26:28.822Z,3.13
2022-11-14T03:29:32.346Z,4.78
2022-11-14T03:32:35.601Z,3.55
2022-11-14T03:35:43.285Z,3.87
2022-11-14T03:38:47.977Z,5.20
2022-11-14T03:41:52.410Z,3.67
2022-11-14T03:44:55.577Z,4.28
2022-11-14T03:47:58.814Z,4.15
2022-11-14T03:51:02.211Z,4.40
2022-11-14T03:54:07.526Z,4.70
2022-11-14T03:57:10.730Z,5.35
2022-11-14T04:00:14.998Z,5.10
2022-11-14T04:06:21.618Z,6.63
2022-11-14T04:09:26.030Z,5.10
2022-11-14T04:12:29.551Z,4.65
2022-11-14T04:15:32.724Z,5.03
2022-11-14T04:18:35.907Z,5.03
2022-11-14T04:21:39.824Z,7.43
2022-11-14T04:24:45.081Z,6.55
2022-11-14T04:27:48.795Z,8.13
2022-11-14T04:30:52.394Z,7.38
2022-11-14T04:33:55.610Z,7.90
2022-11-14T04:36:59.149Z,8.87
2022-11-14T04:40:04.235Z,9.00
2022-11-14T04:43:07.733Z,8.70
2022-11-14T04:46:10.952Z,10.00
2022-11-14T04:49:14.365Z,12.75
2022-11-14T04:52:17.769Z,10.13
2022-11-14T04:55:22.666Z,10.98
2022-11-14T04:58:26.596Z,9.27
2022-11-14T05:01:31.672Z,9.95
2022-11-14T05:04:34.895Z,8.50
2022-11-14T05:07:38.157Z,10.30
2022-11-14T05:10:47.805Z,11.73
2022-11-14T05:13:51.399Z,10.15
2022-11-14T05:16:54.587Z,10.68
2022-11-14T05:19:58.684Z,9.15
2022-11-14T05:23:01.798Z,10.40
2022-11-14T05:26:13.272Z,8.63
2022-11-14T05:29:17.129Z,8.93
2022-11-14T05:32:20.865Z,11.63
2022-11-14T05:35:24.221Z,11.10
2022-11-14T05:38:27.937Z,10.63
2022-11-14T05:41:32.864Z,10.65
2022-11-14T05:44:36.445Z,10.93
2022-11-14T05:47:39.921Z,11.82
2022-11-14T05:50:43.090Z,11.63
2022-11-14T05:53:46.656Z,9.05
2022-11-14T05:56:51.145Z,11.70
2022-11-14T05:59:54.946Z,10.30
2022-11-14T06:02:59.656Z,10.48
2022-11-14T06:06:04.096Z,11.85
2022-11-14T06:09:08.818Z,14.98
2022-11-14T06:18:20.389Z,9.10
2022-11-14T06:21:26.445Z,6.93
2022-11-14T06:24:30.053Z,9.70
2022-11-14T06:27:34.668Z,12.18
2022-11-14T06:30:38.564Z,11.25
2022-11-14T06:33:41.687Z,7.72
2022-11-14T06:36:44.879Z,11.25
2022-11-14T06:39:48.027Z,9.40
2022-11-14T06:42:56.588Z,9.00
2022-11-14T06:45:59.934Z,11.27
2022-11-14T06:49:03.353Z,9.70
2022-11-14T06:52:06.560Z,8.90
2022-11-14T06:55:10.157Z,7.20
2022-11-14T06:58:14.798Z,10.63
2022-11-14T07:01:21.123Z,12.80
2022-11-14T07:04:24.369Z,15.45
2022-11-14T07:07:28.860Z,13.65
2022-11-14T07:10:32.674Z,9.55
2022-11-14T07:13:38.546Z,12.25
2022-11-14T07:16:42.762Z,11.13
2022-11-14T07:22:49.381Z,10.15
2022-11-14T07:25:53.241Z,8.80
2022-11-14T07:29:02.181Z,10.32
2022-11-14T07:32:06.923Z,11.77
2022-11-14T07:35:11.522Z,10.55
2022-11-14T07:38:15.255Z,9.50
2022-11-14T07:41:19.195Z,8.75
2022-11-14T07:44:23.894Z,9.63
2022-11-14T07:47:29.089Z,7.15
2022-11-14T07:50:32.769Z,8.13
2022-11-14T07:53:36.728Z,5.32
2022-11-14T07:56:39.913Z,6.75
2022-11-14T07:59:44.494Z,7.23
2022-11-14T08:02:48.762Z,5.78
2022-11-14T08:05:51.998Z,7.45
2022-11-14T08:08:55.771Z,6.13
2022-11-14T08:11:58.905Z,5.70
2022-11-14T08:15:04.004Z,8.00
2022-11-14T08:18:07.750Z,4.80
2022-11-14T08:21:10.903Z,5.68
2022-11-14T08:24:14.553Z,5.27
2022-11-14T08:27:17.636Z,4.53
2022-11-14T08:30:22.232Z,5.93
2022-11-14T08:33:26.284Z,3.97
2022-11-14T08:36:29.494Z,5.60
2022-11-14T08:39:32.755Z,3.10
2022-11-14T08:42:36.564Z,3.43
2022-11-14T08:45:41.395Z,3.70
2022-11-14T08:48:44.692Z,3.70
2022-11-14T08:51:48.110Z,4.30
2022-11-14T08:54:51.301Z,4.50
2022-11-14T08:57:55.322Z,3.60
2022-11-14T09:01:05.750Z,10.05
2022-11-14T09:04:11.985Z,2.78
2022-11-14T09:07:15.605Z,3.88
2022-11-14T09:10:19.160Z,3.13
2022-11-14T09:13:22.841Z,3.85
2022-11-14T09:16:27.419Z,4.75
2022-11-14T09:19:30.675Z,2.25
2022-11-14T09:22:33.885Z,5.67
2022-11-14T09:25:38.341Z,3.53
2022-11-14T09:28:41.595Z,4.95
2022-11-14T09:31:47.260Z,6.43
2022-11-14T09:34:50.899Z,4.90
2022-11-14T09:38:02.063Z,8.32
2022-11-14T09:41:24.772Z,6.05
2022-11-14T09:44:50.769Z,6.80
2022-11-14T09:48:07.325Z,5.97
2022-11-14T09:51:17.563Z,7.50
2022-11-14T09:54:25.195Z,6.72
2022-11-14T09:57:28.973Z,6.80
2022-11-14T10:00:49.566Z,8.50
2022-11-14T10:04:09.228Z,11.40
2022-11-14T10:07:32.274Z,12.65
2022-11-14T10:10:54.224Z,7.50
2022-11-14T10:14:32.281Z,8.65
2022-11-14T10:18:00.748Z,11.10
2022-11-14T10:21:21.270Z,9.00
2022-11-14T10:24:52.783Z,6.43
2022-11-14T10:28:21.198Z,7.10
2022-11-14T10:31:42.989Z,7.47
2022-11-14T10:34:54.340Z,6.72
2022-11-14T10:38:07.051Z,7.45
2022-11-14T10:41:28.467Z,7.28
2022-11-14T10:47:52.880Z,8.80
2022-11-14T10:50:59.548Z,9.15
2022-11-14T10:54:14.933Z,11.57
2022-11-14T10:57:20.071Z,8.35
2022-11-14T11:00:24.193Z,9.73
2022-11-14T11:06:46.905Z,8.85
2022-11-14T11:10:19.422Z,9.30
2022-11-14T11:13:36.132Z,8.02
2022-11-14T11:16:40.123Z,9.65
2022-11-14T11:19:44.034Z,9.50
2022-11-14T11:22:47.269Z,9.07
2022-11-14T11:26:01.539Z,9.80
2022-11-14T11:29:15.385Z,9.00
2022-11-14T11:32:27.376Z,8.10
2022-11-14T11:35:31.622Z,13.88
2022-11-14T11:42:07.783Z,13.00
2022-11-14T11:45:17.315Z,8.93
2022-11-14T11:48:23.200Z,12.20
2022-11-14T11:51:28.415Z,10.73
2022-11-14T11:54:45.629Z,10.23
2022-11-14T11:58:01.758Z,12.60
2022-11-14T12:01:05.758Z,9.95
2022-11-14T12:04:09.763Z,13.25
2022-11-14T12:07:19.403Z,12.73
2022-11-14T12:10:28.972Z,12.80
2022-11-14T12:14:02.657Z,10.75
2022-11-14T12:17:38.195Z,14.23
2022-11-14T12:21:12.339Z,10.88
2022-11-14T12:24:58.427Z,11.60
2022-11-14T12:28:21.927Z,12.30
2022-11-14T12:31:32.146Z,11.23
2022-11-14T12:34:41.380Z,12.10
2022-11-14T12:37:54.216Z,11.35
2022-11-14T12:41:02.930Z,10.95
2022-11-14T12:44:32.659Z,14.23
2022-11-14T12:48:12.209Z,12.98
2022-11-14T12:51:52.364Z,12.98
2022-11-14T12:54:56.383Z,15.70
2022-11-14T12:58:09.698Z,12.73
2022-11-14T13:01:34.995Z,12.85
2022-11-14T13:04:56.318Z,16.35
2022-11-14T13:08:23.386Z,10.88
2022-11-14T13:12:00.356Z,11.18
2022-11-14T13:15:49.944Z,13.23
2022-11-14T13:19:17.507Z,10.73
2022-11-14T13:22:41.213Z,11.80
2022-11-14T13:25:44.584Z,11.40
2022-11-14T13:28:50.562Z,12.77
2022-11-14T13:31:53.833Z,13.25
2022-11-14T13:35:05.323Z,11.37
2022-11-14T13:38:51.269Z,13.00
2022-11-14T13:42:26.706Z,10.82
2022-11-14T13:45:56.614Z,9.60
2022-11-14T13:49:32.161Z,11.57
2022-11-14T13:52:42.787Z,10.63
2022-11-14T13:56:01.984Z,15.15
2022-11-14T13:59:36.766Z,11.73
2022-11-14T14:03:08.782Z,14.20
2022-11-14T14:06:34.532Z,14.25
2022-11-14T14:09:49.649Z,11.57
2022-11-14T14:13:13.292Z,10.65
2022-11-14T14:16:33.350Z,11.75
2022-11-14T14:19:55.507Z,12.60
2022-11-14T14:23:17.283Z,11.88
2022-11-14T14:26:33.788Z,12.20
2022-11-14T14:29:55.268Z,13.45
2022-11-14T14:33:15.042Z,13.40
2022-11-14T14:36:22.641Z,16.67
2022-11-14T14:39:34.339Z,15.82
2022-11-14T14:42:47.572Z,14.27
2022-11-14T14:45:57.654Z,11.07
2022-11-14T14:49:06.650Z,12.98
2022-11-14T14:52:22.379Z,15.50
2022-11-14T14:55:32.639Z,12.95
2022-11-14T14:58:38.364Z,10.93
2022-11-14T15:01:44.048Z,11.77
2022-11-14T15:04:49.267Z,12.80
2022-11-14T15:14:06.327Z,12.55
2022-11-14T15:17:13.397Z,12.07
2022-11-14T15:20:28.782Z,15.45
2022-11-14T15:23:33.229Z,13.98
2022-11-14T15:26:36.699Z,11.53
2022-11-14T15:29:47.177Z,15.35
2022-11-14T15:32:54.147Z,15.07
2022-11-14T15:36:09.420Z,11.35
2022-11-14T15:39:28.892Z,10.85
2022-11-14T15:42:32.391Z,12.48
2022-11-14T15:45:42.137Z,13.05
2022-11-14T15:48:49.949Z,14.60
2022-11-14T15:51:57.534Z,12.40
2022-11-14T15:55:00.940Z,11.05
2022-11-14T15:58:27.205Z,12.77
2022-11-14T16:01:28.076Z,11.55
2022-11-14T16:04:37.375Z,13.75
2022-11-14T16:07:40.787Z,11.40
2022-11-14T16:10:44.353Z,12.90
2022-11-14T16:13:47.981Z,13.82
2022-11-14T16:16:51.856Z,17.63
2022-11-14T16:19:59.956Z,16.67
2022-11-14T16:23:03.749Z,12.77
2022-11-14T16:26:07.073Z,13.80
2022-11-14T16:29:10.410Z,13.73
2022-11-14T16:32:14.001Z,14.97
2022-11-14T16:35:21.534Z,14.13
2022-11-14T16:38:25.220Z,15.00
2022-11-14T16:41:29.315Z,14.82
2022-11-14T16:47:44.835Z,12.93
2022-11-14T16:50:54.183Z,12.95
2022-11-14T16:54:00.703Z,14.82
2022-11-14T16:57:03.901Z,16.83
2022-11-14T17:00:10.972Z,15.13
2022-11-14T17:03:14.511Z,15.82
2022-11-14T17:06:19.658Z,17.52
2022-11-14T17:09:23.635Z,15.98
2022-11-14T17:12:27.775Z,13.75
2022-11-14T17:15:33.422Z,19.10
2022-11-14T17:18:38.998Z,17.23
2022-11-14T17:21:45.076Z,14.55
2022-11-14T17:24:48.639Z,16.67
2022-11-14T17:27:54.888Z,15.73
2022-11-14T17:30:58.549Z,13.95
2022-11-14T17:34:03.002Z,19.25
2022-11-14T17:37:07.697Z,17.05
2022-11-14T17:40:15.465Z,17.60
2022-11-14T17:43:19.520Z,17.08
2022-11-14T17:46:24.240Z,18.33
2022-11-14T17:49:29.776Z,21.58
2022-11-14T17:52:35.815Z,16.75
2022-11-14T17:55:40.741Z,19.05
2022-11-14T17:58:47.957Z,19.23
2022-11-14T18:01:56.164Z,14.65
2022-11-14T18:05:02.022Z,23.25
2022-11-14T18:08:07.021Z,18.75
2022-11-14T18:11:13.721Z,18.25
2022-11-14T18:14:16.917Z,17.67
2022-11-14T18:17:20.098Z,19.67
2022-11-14T18:21:12.916Z,21.55
2022-11-14T18:24:22.140Z,20.27
2022-11-14T18:27:26.225Z,25.60
2022-11-14T18:30:41.532Z,23.73
2022-11-14T18:34:13.904Z,23.63
2022-11-14T18:38:04.992Z,23.27
2022-11-14T18:41:52.671Z,21.30
2022-11-14T18:45:25.651Z,24.65
2022-11-14T18:49:01.308Z,22.00
2022-11-14T18:52:17.409Z,22.65
2022-11-14T18:55:28.396Z,19.83
2022-11-14T18:58:43.092Z,24.08
2022-11-14T19:01:47.169Z,28.50
2022-11-14T19:04:50.392Z,27.20
2022-11-14T19:07:55.648Z,23.63
2022-11-14T19:11:04.118Z,25.20
2022-11-14T19:14:09.791Z,27.08
2022-11-14T19:17:14.539Z,24.08
2022-11-14T19:20:18.765Z,24.58
2022-11-14T19:26:26.014Z,26.88
2022-11-14T19:32:34.344Z,24.80
2022-11-14T19:35:40.850Z,23.92
2022-11-14T19:38:45.743Z,23.42
2022-11-14T19:41:49.853Z,24.90
2022-11-14T19:47:58.514Z,27.27
2022-11-14T19:51:07.520Z,23.45
2022-11-14T19:54:12.446Z,25.75
2022-11-14T19:57:15.736Z,23.40
2022-11-14T20:00:24.826Z,27.80
2022-11-14T20:03:28.720Z,26.98
2022-11-14T20:06:35.618Z,26.83
2022-11-14T20:09:39.364Z,24.58
2022-11-14T20:12:42.879Z,21.25
2022-11-14T20:15:49.564Z,28.42
2022-11-14T20:18:59.255Z,25.90
2022-11-14T20:22:03.033Z,24.67
2022-11-14T20:25:07.764Z,31.65
2022-11-14T20:28:13.260Z,33.80
2022-11-14T20:31:20.995Z,27.25
2022-11-14T20:34:25.153Z,29.27
2022-11-14T20:40:33.358Z,31.35
2022-11-14T20:43:37.470Z,31.25
2022-11-14T20:49:48.742Z,34.63
2022-11-14T20:52:53.441Z,31.75
2022-11-14T20:56:00.212Z,33.22
2022-11-14T20:59:04.377Z,33.53
2022-11-14T21:05:16.227Z,29.95
2022-11-14T21:08:24.468Z,35.88
2022-11-14T21:11:31.851Z,29.90
2022-11-14T21:14:38.848Z,30.30
2022-11-14T21:17:43.570Z,32.55
2022-11-14T21:20:47.355Z,32.92
2022-11-14T21:23:51.757Z,35.08
2022-11-14T21:26:55.200Z,36.25
2022-11-14T21:29:59.031Z,34.13
2022-11-14T21:33:03.936Z,34.67
2022-11-14T21:36:30.279Z,38.03
2022-11-14T21:39:30.852Z,30.83
2022-11-14T21:42:34.111Z,30.90
2022-11-14T21:45:37.471Z,33.43
2022-11-14T21:48:43.275Z,33.50
2022-11-14T21:51:48.371Z,34.17
2022-11-14T21:54:51.758Z,36.55
2022-11-14T21:57:56.187Z,41.30
2022-11-14T22:01:07.153Z,34.85
2022-11-14T22:04:13.622Z,34.83
2022-11-14T22:07:17.847Z,36.65
2022-11-14T22:10:25.442Z,41.08
2022-11-14T22:13:36.642Z,35.35
2022-11-14T22:16:44.800Z,36.40
2022-11-14T22:19:50.048Z,36.97
2022-11-14T22:22:57.546Z,34.97
2022-11-14T22:26:03.981Z,37.83
2022-11-14T22:29:10.060Z,38.35
2022-11-14T22:32:14.840Z,38.42
2022-11-14T22:35:19.582Z,45.95
2022-11-14T22:38:23.254Z,39.08
2022-11-14T22:41:33.413Z,40.10
2022-11-14T22:44:44.283Z,40.25
2022-11-14T22:47:50.810Z,42.85
2022-11-14T22:51:07.224Z,38.22
2022-11-14T22:54:11.344Z,36.70
2022-11-14T23:00:20.755Z,33.97
2022-11-14T23:03:31.144Z,35.85
2022-11-14T23:06:39.985Z,34.38
2022-11-14T23:09:44.583Z,36.85
2022-11-14T23:12:47.889Z,36.88
2022-11-14T23:15:51.110Z,38.53
2022-11-14T23:18:59.477Z,38.17
2022-11-14T23:22:09.776Z,44.25
2022-11-14T23:25:14.276Z,40.75
2022-11-14T23:28:20.507Z,41.78
2022-11-14T23:31:26.319Z,43.85
2022-11-14T23:34:30.943Z,40.70
2022-11-14T23:37:36.391Z,40.00
2022-11-14T23:40:40.201Z,42.95
2022-11-14T23:43:44.791Z,43.10
2022-11-14T23:46:48.291Z,42.28
2022-11-14T23:49:51.863Z,39.80
2022-11-14T23:53:00.775Z,33.58
2022-11-14T23:56:05.136Z,36.13
2022-11-14T23:59:08.744Z,39.67
